Time;durP1;ratioP1;P1;durP2;ratioP2;P2;SDS_P1;SDS_P2;PMS_P1;PMS_P2;Temp;Humidity;BMP_temperature;BMP_pressure;BME280_temperature;BME280_humidity;BME280_pressure;Samples;Min_cycle;Max_cycle;Signal;HPM_P1;HPM_P2
2021/08/23 00:02:14;;;;;;;13.20;11.93;;;16.80;99.90;;;;;;5091823;28;20032;-71
2021/08/23 00:04:40;;;;;;;13.63;12.23;;;16.90;99.90;;;;;;5092388;28;20376;-72
2021/08/23 00:07:06;;;;;;;14.38;13.05;;;17.00;99.90;;;;;;5093122;28;20141;-71
2021/08/23 00:09:32;;;;;;;13.98;12.57;;;17.00;99.90;;;;;;5093043;28;20022;-70
2021/08/23 00:11:58;;;;;;;14.05;12.65;;;17.10;99.90;;;;;;5091543;28;20400;-71
2021/08/23 00:14:24;;;;;;;14.10;12.63;;;17.00;99.90;;;;;;5092740;28;20468;-71
2021/08/23 00:16:49;;;;;;;14.38;12.55;;;17.10;99.90;;;;;;5092705;28;20024;-71
2021/08/23 00:19:15;;;;;;;13.50;12.13;;;17.10;99.90;;;;;;5091942;28;20388;-71
2021/08/23 00:21:44;;;;;;;12.13;11.00;;;17.00;99.90;;;;;;5092525;28;20075;-70
2021/08/23 00:24:45;;;;;;;15.35;13.82;;;17.00;99.90;;;;;;5092835;28;20388;-71
2021/08/23 00:27:03;;;;;;;16.75;15.05;;;16.90;99.90;;;;;;5089632;28;20078;-70
2021/08/23 00:29:29;;;;;;;17.60;15.80;;;16.80;99.90;;;;;;5092716;28;20024;-71
2021/08/23 00:31:54;;;;;;;16.27;14.73;;;16.80;99.90;;;;;;5090927;28;20057;-71
2021/08/23 00:34:20;;;;;;;17.63;15.75;;;16.70;99.90;;;;;;5090813;28;20035;-71
2021/08/23 00:36:46;;;;;;;18.17;16.33;;;16.70;99.90;;;;;;5092417;28;20016;-71
2021/08/23 00:39:14;;;;;;;18.95;17.02;;;16.70;99.90;;;;;;5092655;28;20024;-70
2021/08/23 00:41:41;;;;;;;18.85;16.90;;;16.70;99.90;;;;;;5091526;28;20032;-71
2021/08/23 00:44:07;;;;;;;18.88;16.98;;;16.70;99.90;;;;;;5092374;28;20516;-70
2021/08/23 00:46:33;;;;;;;17.20;15.55;;;16.70;99.90;;;;;;5091970;28;20112;-71
2021/08/23 00:49:00;;;;;;;17.92;16.13;;;16.70;99.90;;;;;;5092268;28;20052;-72
2021/08/23 00:51:26;;;;;;;18.70;16.90;;;16.70;99.90;;;;;;5094997;28;20544;-71
2021/08/23 00:53:52;;;;;;;19.05;17.35;;;16.70;99.90;;;;;;5095742;28;20209;-70
2021/08/23 00:56:18;;;;;;;20.17;18.23;;;16.80;99.90;;;;;;5096466;28;20484;-70
2021/08/23 00:58:44;;;;;;;19.58;17.63;;;16.80;99.90;;;;;;5096281;28;20023;-73
2021/08/23 01:01:30;;;;;;;18.73;16.80;;;16.80;99.90;;;;;;5095610;28;20373;-72
2021/08/23 01:04:07;;;;;;;20.65;18.45;;;16.80;99.90;;;;;;5094846;28;20024;-70
2021/08/23 01:06:33;;;;;;;19.90;18.10;;;16.80;99.90;;;;;;5096385;28;20024;-71
2021/08/23 01:09:05;;;;;;;21.63;19.33;;;16.80;99.90;;;;;;5094238;28;20024;-70
2021/08/23 01:11:35;;;;;;;19.83;17.88;;;16.70;99.90;;;;;;5096284;28;20110;-70
2021/08/23 01:14:02;;;;;;;21.35;19.15;;;16.80;99.90;;;;;;5094487;28;20052;-70
2021/08/23 01:16:28;;;;;;;21.90;19.85;;;16.80;99.90;;;;;;5094240;28;20485;-71
2021/08/23 01:18:54;;;;;;;22.25;20.13;;;16.90;99.90;;;;;;5096175;28;20158;-71
2021/08/23 01:21:25;;;;;;;23.15;20.95;;;16.90;99.90;;;;;;5095356;28;20036;-69
2021/08/23 01:23:52;;;;;;;20.33;18.50;;;17.00;99.90;;;;;;5092268;28;20024;-70
2021/08/23 01:26:25;;;;;;;20.52;18.70;;;17.00;99.90;;;;;;5094733;28;20468;-69
2021/08/23 01:28:57;;;;;;;21.27;19.27;;;17.00;99.90;;;;;;5093536;28;20028;-69
2021/08/23 01:31:26;;;;;;;19.95;17.83;;;17.00;99.90;;;;;;5095787;28;20373;-70
2021/08/23 01:33:52;;;;;;;22.10;19.38;;;17.10;99.90;;;;;;5095707;28;20024;-70
2021/08/23 01:36:18;;;;;;;19.55;17.55;;;17.10;99.90;;;;;;5093920;28;20034;-70
2021/08/23 01:38:43;;;;;;;20.35;18.35;;;17.10;99.90;;;;;;5095404;28;20024;-70
2021/08/23 01:41:10;;;;;;;23.85;21.45;;;17.10;99.90;;;;;;5095557;28;20024;-70
2021/08/23 01:43:36;;;;;;;21.95;19.60;;;17.10;99.90;;;;;;5093624;28;20081;-69
2021/08/23 01:46:02;;;;;;;25.20;22.33;;;17.10;99.90;;;;;;5095382;28;20028;-70
2021/08/23 01:48:28;;;;;;;24.98;22.35;;;17.10;99.90;;;;;;5095686;28;20028;-70
2021/08/23 01:50:54;;;;;;;27.00;23.50;;;17.10;99.90;;;;;;5094489;28;20110;-70
2021/08/23 01:53:20;;;;;;;24.98;22.40;;;17.10;99.90;;;;;;5095501;28;20024;-70
2021/08/23 01:55:46;;;;;;;26.95;23.17;;;17.10;99.90;;;;;;5093834;28;20380;-70
2021/08/23 01:58:13;;;;;;;30.75;25.58;;;17.10;99.90;;;;;;5094683;28;20461;-70
2021/08/23 02:00:38;;;;;;;31.35;27.90;;;17.10;99.90;;;;;;5093844;28;20020;-70
2021/08/23 02:03:04;;;;;;;30.13;25.65;;;17.20;99.90;;;;;;5094377;28;20035;-70
2021/08/23 02:05:30;;;;;;;31.92;26.02;;;17.20;99.90;;;;;;5094656;28;20039;-70
2021/08/23 02:07:56;;;;;;;31.67;26.27;;;17.20;99.90;;;;;;5094903;28;20380;-70
2021/08/23 02:10:21;;;;;;;32.53;27.52;;;17.20;99.90;;;;;;5095013;28;20024;-70
2021/08/23 02:12:47;;;;;;;30.75;25.48;;;17.20;99.90;;;;;;5093879;28;20048;-70
2021/08/23 02:15:13;;;;;;;29.52;25.83;;;17.20;99.90;;;;;;5095192;28;20028;-70
2021/08/23 02:17:39;;;;;;;28.67;25.58;;;17.20;99.90;;;;;;5095066;28;20043;-70
2021/08/23 02:20:06;;;;;;;29.58;25.70;;;17.20;99.90;;;;;;5092747;28;20020;-70
2021/08/23 02:22:32;;;;;;;32.38;27.42;;;17.30;99.90;;;;;;5093554;28;20040;-70
2021/08/23 02:24:57;;;;;;;29.48;26.20;;;17.30;99.90;;;;;;5092678;28;20027;-70
2021/08/23 02:27:23;;;;;;;29.13;25.73;;;17.20;99.90;;;;;;5094699;28;20473;-70
2021/08/23 02:29:49;;;;;;;27.35;24.45;;;17.20;99.90;;;;;;5094346;28;20104;-70
2021/08/23 02:32:14;;;;;;;26.45;23.65;;;17.20;99.90;;;;;;5092954;28;20443;-71
2021/08/23 02:34:40;;;;;;;25.73;23.10;;;17.20;99.90;;;;;;5093429;28;20023;-70
2021/08/23 02:37:05;;;;;;;24.48;21.88;;;17.20;99.90;;;;;;5094585;28;20496;-70
2021/08/23 02:39:31;;;;;;;23.30;21.00;;;17.20;99.90;;;;;;5092489;28;20074;-70
2021/08/23 02:41:56;;;;;;;22.70;20.45;;;17.30;99.90;;;;;;5094214;28;20028;-70
2021/08/23 02:44:22;;;;;;;20.92;18.92;;;17.30;99.90;;;;;;5094357;28;20457;-69
2021/08/23 02:46:48;;;;;;;20.42;18.30;;;17.20;99.90;;;;;;5093556;28;20031;-70
2021/08/23 02:49:16;;;;;;;21.30;19.13;;;17.30;99.90;;;;;;5094370;28;20511;-70
2021/08/23 02:51:45;;;;;;;20.15;18.05;;;17.30;99.90;;;;;;5092802;28;20024;-70
2021/08/23 02:54:12;;;;;;;17.80;16.10;;;17.30;99.90;;;;;;5093640;28;20020;-69
2021/08/23 02:56:37;;;;;;;17.30;15.52;;;17.30;99.90;;;;;;5094199;28;20068;-69
2021/08/23 02:59:03;;;;;;;17.83;15.93;;;17.30;99.90;;;;;;5093763;28;20484;-69
2021/08/23 03:01:28;;;;;;;16.42;14.75;;;17.30;99.90;;;;;;5093195;28;20036;-70
2021/08/23 03:03:54;;;;;;;14.20;12.80;;;17.20;99.90;;;;;;5093906;28;20031;-70
2021/08/23 03:06:20;;;;;;;14.35;12.85;;;17.20;99.90;;;;;;5094226;28;20024;-72
2021/08/23 03:08:45;;;;;;;15.18;13.30;;;17.20;99.90;;;;;;5093119;28;20137;-70
2021/08/23 03:11:13;;;;;;;15.52;14.02;;;17.20;99.90;;;;;;5093858;28;20028;-70
2021/08/23 03:13:41;;;;;;;17.02;15.23;;;17.20;99.90;;;;;;5092838;28;20098;-70
2021/08/23 03:16:06;;;;;;;25.13;22.13;;;17.10;99.90;;;;;;5093055;28;20047;-70
2021/08/23 03:18:32;;;;;;;22.75;20.27;;;17.10;99.90;;;;;;5092681;28;20054;-70
2021/08/23 03:20:58;;;;;;;24.58;21.98;;;17.10;99.90;;;;;;5093366;28;20055;-69
2021/08/23 03:23:24;;;;;;;29.75;24.90;;;17.10;99.90;;;;;;5091794;28;20063;-69
2021/08/23 03:25:50;;;;;;;29.15;25.00;;;17.10;99.90;;;;;;5092210;28;20491;-69
2021/08/23 03:28:16;;;;;;;31.10;27.05;;;17.00;99.90;;;;;;5092954;28;20032;-70
2021/08/23 03:30:41;;;;;;;29.42;26.25;;;17.00;99.90;;;;;;5091905;28;20027;-69
2021/08/23 03:33:07;;;;;;;27.52;23.92;;;17.00;99.90;;;;;;5093580;28;20056;-69
2021/08/23 03:35:33;;;;;;;32.95;25.77;;;17.00;99.90;;;;;;5091402;28;20024;-69
2021/08/23 03:38:00;;;;;;;29.30;25.27;;;17.00;99.90;;;;;;5093183;28;20066;-71
2021/08/23 03:40:25;;;;;;;27.60;24.50;;;17.00;99.90;;;;;;5093547;28;20016;-70
2021/08/23 03:42:51;;;;;;;28.33;25.30;;;17.00;99.90;;;;;;5091222;28;20032;-72
2021/08/23 03:45:16;;;;;;;31.58;26.42;;;16.90;99.90;;;;;;5093298;28;20027;-72
2021/08/23 03:47:42;;;;;;;28.42;24.52;;;16.90;99.90;;;;;;5092962;28;20047;-71
2021/08/23 03:50:08;;;;;;;30.42;25.42;;;16.80;99.90;;;;;;5092449;28;20023;-71
2021/08/23 03:52:33;;;;;;;28.50;24.15;;;16.80;99.90;;;;;;5092041;28;20024;-70
2021/08/23 03:54:59;;;;;;;32.15;25.98;;;16.70;99.90;;;;;;5092954;28;20472;-70
2021/08/23 03:57:24;;;;;;;29.42;25.38;;;16.60;99.90;;;;;;5092561;28;20039;-72
2021/08/23 03:59:50;;;;;;;30.70;26.33;;;16.60;99.90;;;;;;5092433;28;20028;-70
2021/08/23 04:02:15;;;;;;;28.63;25.08;;;16.60;99.90;;;;;;5093086;28;20047;-71
2021/08/23 04:04:41;;;;;;;30.88;26.85;;;16.50;99.90;;;;;;5092171;28;20027;-70
2021/08/23 04:07:06;;;;;;;31.48;26.85;;;16.50;99.90;;;;;;5093066;28;20043;-70
2021/08/23 04:09:32;;;;;;;30.10;25.75;;;16.50;99.90;;;;;;5092906;28;20020;-70
2021/08/23 04:11:58;;;;;;;29.48;26.00;;;16.50;99.90;;;;;;5091875;28;20058;-70
2021/08/23 04:14:24;;;;;;;32.10;26.58;;;16.50;99.90;;;;;;5092967;28;20047;-71
2021/08/23 04:16:49;;;;;;;34.63;28.13;;;16.50;99.90;;;;;;5092509;28;20488;-71
2021/08/23 04:19:15;;;;;;;33.22;26.30;;;16.60;99.90;;;;;;5092401;28;20020;-70
2021/08/23 04:21:40;;;;;;;31.98;26.05;;;16.60;99.90;;;;;;5091210;28;20032;-70
2021/08/23 04:24:06;;;;;;;34.15;27.55;;;16.60;99.90;;;;;;5092864;28;20027;-71
2021/08/23 04:26:31;;;;;;;34.20;28.98;;;16.60;99.90;;;;;;5097634;28;20089;-71
2021/08/23 04:28:57;;;;;;;33.10;26.05;;;16.70;99.90;;;;;;5099356;28;20026;-70
2021/08/23 04:31:24;;;;;;;32.63;25.98;;;16.70;99.90;;;;;;5098059;28;20487;-71
2021/08/23 04:33:49;;;;;;;31.70;26.42;;;16.70;99.90;;;;;;5098727;28;20028;-71
2021/08/23 04:36:15;;;;;;;39.97;26.90;;;16.70;99.90;;;;;;5098239;28;20020;-70
2021/08/23 04:38:41;;;;;;;33.40;25.83;;;16.70;99.90;;;;;;5098655;28;20028;-73
2021/08/23 04:41:07;;;;;;;31.77;25.08;;;16.60;99.90;;;;;;5096883;28;20027;-73
2021/08/23 04:43:33;;;;;;;32.53;25.02;;;16.60;99.90;;;;;;5098088;28;20111;-72
2021/08/23 04:45:58;;;;;;;33.97;25.52;;;16.60;99.90;;;;;;5096562;28;20115;-70
2021/08/23 04:48:24;;;;;;;30.65;24.63;;;16.60;99.90;;;;;;5099502;28;20032;-72
2021/08/23 04:50:49;;;;;;;30.30;23.17;;;16.60;99.90;;;;;;5099082;28;20012;-71
2021/08/23 04:53:15;;;;;;;31.73;24.20;;;16.60;99.90;;;;;;5098474;28;20472;-71
2021/08/23 04:55:41;;;;;;;27.35;22.33;;;16.50;99.90;;;;;;5103752;28;20020;-71
2021/08/23 04:58:06;;;;;;;28.63;21.52;;;16.50;99.90;;;;;;5109655;28;20057;-72
2021/08/23 05:00:32;;;;;;;29.65;22.60;;;16.50;99.90;;;;;;5107072;27;20047;-71
2021/08/23 05:02:57;;;;;;;28.27;21.95;;;16.50;99.90;;;;;;5119081;28;20036;-71
2021/08/23 05:05:24;;;;;;;28.60;21.80;;;16.50;99.90;;;;;;5104858;28;20020;-71
2021/08/23 05:07:49;;;;;;;27.20;21.30;;;16.50;99.90;;;;;;5097803;28;20103;-71
2021/08/23 05:10:15;;;;;;;26.52;21.42;;;16.50;99.90;;;;;;5098915;28;20099;-71
2021/08/23 05:12:40;;;;;;;26.65;20.65;;;16.50;99.90;;;;;;5098550;28;20044;-71
2021/08/23 05:15:06;;;;;;;28.75;21.08;;;16.50;99.90;;;;;;5097605;28;20104;-72
2021/08/23 05:17:32;;;;;;;27.02;20.77;;;16.50;99.90;;;;;;5097510;28;20016;-72
2021/08/23 05:19:58;;;;;;;28.48;21.17;;;16.50;99.90;;;;;;5097071;28;20411;-71
2021/08/23 05:22:24;;;;;;;31.67;21.98;;;16.50;99.90;;;;;;5098147;28;20104;-71
2021/08/23 05:24:50;;;;;;;27.25;20.65;;;16.50;99.90;;;;;;5097165;28;20019;-70
2021/08/23 05:27:16;;;;;;;30.13;21.30;;;16.50;99.90;;;;;;5097232;28;20552;-71
2021/08/23 05:29:43;;;;;;;27.73;21.27;;;16.50;99.90;;;;;;5093128;28;20066;-70
2021/08/23 05:32:10;;;;;;;23.95;19.05;;;16.50;99.90;;;;;;5097601;28;20473;-68
2021/08/23 05:34:35;;;;;;;26.08;20.48;;;16.50;99.90;;;;;;5113599;28;20077;-77
2021/08/23 05:37:01;;;;;;;26.90;20.90;;;16.50;99.90;;;;;;5094661;28;20434;-71
2021/08/23 05:39:26;;;;;;;25.58;19.33;;;16.50;99.90;;;;;;5094265;28;20020;-70
2021/08/23 05:41:52;;;;;;;28.13;20.83;;;16.50;99.90;;;;;;5092496;28;20043;-72
2021/08/23 05:44:17;;;;;;;26.60;19.75;;;16.50;99.90;;;;;;5095176;28;20042;-68
2021/08/23 05:46:43;;;;;;;21.95;19.52;;;16.50;99.90;;;;;;5093496;28;20020;-73
2021/08/23 05:49:09;;;;;;;24.30;21.00;;;16.50;99.90;;;;;;5103032;28;20023;-68
2021/08/23 05:51:34;;;;;;;25.13;20.67;;;16.60;99.90;;;;;;5101781;28;20492;-68
2021/08/23 05:54:01;;;;;;;23.30;19.83;;;16.50;99.90;;;;;;5093657;28;20081;-68
2021/08/23 05:56:27;;;;;;;22.15;19.75;;;16.60;99.90;;;;;;5094448;28;20357;-70
2021/08/23 05:58:52;;;;;;;25.30;20.40;;;16.60;99.90;;;;;;5094701;28;20509;-70
2021/08/23 06:01:18;;;;;;;23.25;20.75;;;16.60;99.90;;;;;;5093688;28;20514;-72
2021/08/23 06:03:44;;;;;;;21.15;18.95;;;16.60;99.90;;;;;;5093720;28;20471;-70
2021/08/23 06:06:10;;;;;;;24.48;20.77;;;16.60;99.90;;;;;;5094600;28;20085;-71
2021/08/23 06:08:36;;;;;;;23.55;21.02;;;16.70;99.90;;;;;;5094757;28;20477;-70
2021/08/23 06:11:03;;;;;;;22.75;20.27;;;16.70;99.90;;;;;;5094151;28;20035;-69
2021/08/23 06:13:29;;;;;;;20.85;18.75;;;16.70;99.90;;;;;;5094665;28;20052;-68
2021/08/23 06:15:55;;;;;;;21.48;19.27;;;16.80;99.90;;;;;;5093238;28;20162;-68
2021/08/23 06:18:22;;;;;;;21.48;19.08;;;16.80;99.90;;;;;;5093442;28;20052;-68
2021/08/23 06:20:48;;;;;;;21.70;19.40;;;16.80;99.90;;;;;;5094199;28;20032;-70
2021/08/23 06:23:14;;;;;;;19.67;17.67;;;16.90;99.90;;;;;;5093371;28;20028;-72
2021/08/23 06:25:40;;;;;;;19.55;17.48;;;16.90;99.90;;;;;;5101564;28;20464;-70
2021/08/23 06:28:06;;;;;;;20.27;18.00;;;16.90;99.90;;;;;;5094556;28;20527;-67
2021/08/23 06:30:31;;;;;;;19.02;16.77;;;17.00;99.90;;;;;;5094275;28;20030;-67
2021/08/23 06:32:57;;;;;;;21.10;18.10;;;17.00;99.90;;;;;;5092985;28;20103;-74
2021/08/23 06:35:23;;;;;;;17.65;15.82;;;17.10;99.90;;;;;;5093217;28;20387;-72
2021/08/23 06:37:49;;;;;;;19.23;17.00;;;17.20;99.90;;;;;;5093629;28;20020;-72
2021/08/23 06:40:14;;;;;;;20.10;16.17;;;17.20;99.90;;;;;;5093849;28;20089;-74
2021/08/23 06:42:40;;;;;;;22.08;16.70;;;17.30;99.90;;;;;;5093148;28;20115;-73
2021/08/23 06:45:07;;;;;;;19.35;15.13;;;17.30;99.90;;;;;;5093038;28;20502;-76
2021/08/23 06:47:33;;;;;;;20.15;16.02;;;17.40;99.90;;;;;;5093960;28;20035;-72
2021/08/23 06:49:59;;;;;;;16.92;14.82;;;17.40;99.90;;;;;;5093825;28;20044;-72
2021/08/23 06:52:24;;;;;;;16.13;13.82;;;17.50;99.90;;;;;;5093764;28;20071;-73
2021/08/23 06:54:50;;;;;;;15.43;13.88;;;17.60;99.90;;;;;;5094107;28;20103;-73
2021/08/23 06:57:16;;;;;;;13.93;12.50;;;17.90;99.90;;;;;;5094358;28;20104;-72
2021/08/23 06:59:41;;;;;;;14.98;13.20;;;18.00;99.90;;;;;;5093066;28;20008;-72
2021/08/23 07:02:07;;;;;;;14.07;12.02;;;17.90;99.90;;;;;;5093981;28;20088;-72
2021/08/23 07:04:33;;;;;;;13.05;11.50;;;17.90;99.90;;;;;;5092791;28;20016;-72
2021/08/23 07:07:01;;;;;;;13.82;11.15;;;17.70;99.90;;;;;;5093106;28;20034;-71
2021/08/23 07:09:27;;;;;;;13.70;9.93;;;17.50;99.90;;;;;;5092364;28;20024;-72
2021/08/23 07:11:53;;;;;;;11.88;10.23;;;17.40;99.90;;;;;;5093487;28;20077;-73
2021/08/23 07:14:18;;;;;;;11.00;9.68;;;17.30;99.90;;;;;;5093248;28;20024;-75
2021/08/23 07:16:44;;;;;;;11.88;9.05;;;17.30;99.90;;;;;;5093561;28;20032;-73
2021/08/23 07:19:09;;;;;;;10.43;8.82;;;17.30;99.90;;;;;;5093763;28;20020;-72
2021/08/23 07:21:35;;;;;;;11.48;8.65;;;17.30;99.90;;;;;;5092897;28;20036;-71
2021/08/23 07:24:00;;;;;;;16.50;9.80;;;17.30;99.90;;;;;;5093497;28;20046;-72
2021/08/23 07:26:26;;;;;;;11.30;8.85;;;17.40;99.90;;;;;;5093645;28;20085;-72
2021/08/23 07:28:52;;;;;;;10.45;9.13;;;17.40;99.90;;;;;;5092670;28;20020;-72
2021/08/23 07:31:18;;;;;;;11.10;9.32;;;17.50;99.90;;;;;;5093533;28;20055;-72
2021/08/23 07:33:44;;;;;;;11.55;9.00;;;17.60;99.90;;;;;;5093390;28;20024;-73
2021/08/23 07:36:10;;;;;;;10.40;9.30;;;17.70;99.90;;;;;;5093021;28;20028;-73
2021/08/23 07:38:35;;;;;;;11.60;9.15;;;17.80;99.90;;;;;;5093495;28;20024;-73
2021/08/23 07:41:03;;;;;;;9.60;8.70;;;17.90;99.90;;;;;;5092827;28;20028;-73
2021/08/23 07:43:29;;;;;;;11.23;8.82;;;18.10;99.90;;;;;;5092842;28;20027;-73
2021/08/23 07:45:55;;;;;;;10.52;8.68;;;18.20;99.90;;;;;;5091971;28;20032;-75
2021/08/23 07:48:20;;;;;;;15.48;8.85;;;18.30;99.90;;;;;;5093308;28;20035;-74
2021/08/23 07:50:46;;;;;;;10.88;8.65;;;18.40;99.90;;;;;;5092291;28;20027;-77
2021/08/23 07:53:11;;;;;;;14.27;10.00;;;18.50;99.90;;;;;;5093338;28;20032;-73
2021/08/23 07:55:37;;;;;;;10.32;8.57;;;18.50;99.90;;;;;;5092622;28;20027;-71
2021/08/23 07:58:03;;;;;;;10.90;8.02;;;18.60;99.90;;;;;;5092848;28;20028;-73
2021/08/23 08:00:28;;;;;;;10.00;7.40;;;18.60;99.90;;;;;;5092629;28;20507;-75
2021/08/23 08:02:54;;;;;;;11.60;7.82;;;18.70;99.90;;;;;;5092264;28;20438;-75
2021/08/23 08:05:19;;;;;;;8.02;6.45;;;18.70;99.90;;;;;;5093066;28;20016;-72
2021/08/23 08:07:45;;;;;;;10.45;7.65;;;18.70;99.90;;;;;;5091401;28;20024;-73
2021/08/23 08:10:12;;;;;;;9.75;6.93;;;18.70;99.90;;;;;;5092531;28;20046;-73
2021/08/23 08:12:38;;;;;;;10.50;6.95;;;18.70;99.90;;;;;;5092917;28;20463;-73
2021/08/23 08:15:05;;;;;;;7.53;6.65;;;18.70;99.90;;;;;;5092642;28;20469;-72
2021/08/23 08:17:30;;;;;;;8.20;6.28;;;18.70;99.90;;;;;;5092256;28;20043;-72
2021/08/23 08:19:56;;;;;;;7.95;6.50;;;18.80;99.90;;;;;;5091144;28;20016;-72
2021/08/23 08:22:22;;;;;;;7.80;6.38;;;18.90;99.90;;;;;;5091456;28;20036;-73
2021/08/23 08:24:47;;;;;;;11.40;7.28;;;19.00;99.90;;;;;;5090545;28;20073;-73
2021/08/23 08:27:13;;;;;;;7.65;5.50;;;19.10;99.90;;;;;;5092768;28;20050;-73
2021/08/23 08:29:40;;;;;;;8.43;6.22;;;19.20;99.90;;;;;;5091458;28;20020;-73
2021/08/23 08:32:06;;;;;;;7.25;6.00;;;19.20;99.90;;;;;;5091039;28;20031;-73
2021/08/23 08:34:32;;;;;;;6.32;4.80;;;19.10;99.90;;;;;;5092866;28;20025;-74
2021/08/23 08:36:58;;;;;;;6.80;5.10;;;19.20;99.90;;;;;;5091301;28;20073;-72
2021/08/23 08:39:23;;;;;;;8.00;5.68;;;19.40;99.90;;;;;;5091796;28;20020;-73
2021/08/23 08:41:49;;;;;;;8.77;5.05;;;19.60;99.90;;;;;;5091290;28;20040;-73
2021/08/23 08:44:14;;;;;;;9.18;5.00;;;19.60;99.90;;;;;;5092776;28;20043;-72
2021/08/23 08:46:41;;;;;;;7.35;4.93;;;19.60;99.90;;;;;;5091998;28;20020;-73
2021/08/23 08:49:11;;;;;;;9.57;4.68;;;19.70;99.90;;;;;;5091450;28;20024;-72
2021/08/23 08:51:38;;;;;;;10.02;4.13;;;19.80;99.90;;;;;;5092457;28;20039;-73
2021/08/23 08:54:05;;;;;;;6.65;4.15;;;20.00;99.90;;;;;;5091638;28;20089;-72
2021/08/23 08:56:34;;;;;;;5.82;4.20;;;20.10;99.90;;;;;;5092651;28;20016;-73
2021/08/23 08:59:02;;;;;;;9.48;4.40;;;20.30;99.90;;;;;;5091451;28;20032;-72
2021/08/23 09:01:27;;;;;;;8.05;4.07;;;20.20;99.90;;;;;;5090851;28;20020;-72
2021/08/23 09:03:59;;;;;;;7.30;3.60;;;20.20;99.90;;;;;;5091993;28;20036;-72
2021/08/23 09:06:25;;;;;;;4.90;3.70;;;20.30;99.90;;;;;;5090465;28;20073;-72
2021/08/23 09:08:50;;;;;;;7.60;3.20;;;20.50;99.90;;;;;;5090726;28;20020;-72
2021/08/23 09:11:18;;;;;;;7.10;4.15;;;20.70;99.90;;;;;;5092322;28;20017;-71
2021/08/23 09:13:59;;;;;;;12.45;4.10;;;20.70;99.90;;;;;;5092985;28;20063;-72
2021/08/23 09:16:27;;;;;;;6.55;4.22;;;20.70;99.90;;;;;;5094969;28;20445;-71
2021/08/23 09:18:52;;;;;;;4.30;3.40;;;20.70;99.90;;;;;;5096080;28;20082;-71
2021/08/23 09:21:31;;;;;;;6.07;4.00;;;20.70;99.90;;;;;;5095110;28;20476;-72
2021/08/23 09:23:58;;;;;;;6.05;3.75;;;20.70;99.90;;;;;;5095775;28;20410;-71
2021/08/23 09:26:30;;;;;;;7.32;3.70;;;20.80;99.90;;;;;;5095948;28;20020;-71
2021/08/23 09:29:06;;;;;;;4.55;3.63;;;20.80;99.90;;;;;;5093713;28;20047;-73
2021/08/23 09:31:35;;;;;;;4.53;3.72;;;20.90;99.90;;;;;;5095807;28;20024;-72
2021/08/23 09:34:03;;;;;;;6.20;3.58;;;21.00;99.90;;;;;;5094985;28;20146;-72
2021/08/23 09:36:29;;;;;;;5.90;3.88;;;20.90;99.90;;;;;;5095878;28;20016;-73
2021/08/23 09:39:06;;;;;;;16.25;3.92;;;20.90;99.90;;;;;;5095418;28;20061;-72
2021/08/23 09:41:40;;;;;;;7.20;3.13;;;20.90;99.90;;;;;;5093902;28;20036;-71
2021/08/23 09:44:11;;;;;;;6.90;3.80;;;21.10;99.90;;;;;;5095860;28;20028;-71
2021/08/23 09:46:37;;;;;;;5.73;3.50;;;21.20;99.90;;;;;;5095612;28;20062;-71
2021/08/23 09:49:08;;;;;;;7.63;3.20;;;21.20;99.90;;;;;;5093381;28;20159;-72
2021/08/23 09:51:39;;;;;;;6.32;3.17;;;21.20;99.90;;;;;;5095577;28;20107;-70
2021/08/23 09:54:07;;;;;;;5.80;3.33;;;21.20;99.90;;;;;;5095581;28;20078;-70
2021/08/23 09:56:35;;;;;;;6.25;3.55;;;21.00;99.90;;;;;;5093720;28;20464;-72
2021/08/23 09:59:02;;;;;;;3.92;3.08;;;20.70;99.90;;;;;;5093694;28;20042;-74
2021/08/23 10:01:31;;;;;;;5.95;3.03;;;20.70;99.90;;;;;;5094005;28;20469;-74
2021/08/23 10:04:00;;;;;;;4.30;2.80;;;20.80;99.90;;;;;;5094334;28;20063;-73
2021/08/23 10:06:27;;;;;;;7.32;3.28;;;21.20;99.90;;;;;;5095271;28;20020;-71
2021/08/23 10:08:52;;;;;;;5.50;3.35;;;21.40;99.90;;;;;;5094944;28;20024;-74
2021/08/23 10:11:20;;;;;;;4.00;2.95;;;21.40;99.90;;;;;;5094266;28;20418;-72
2021/08/23 10:13:46;;;;;;;8.57;3.63;;;21.30;99.90;;;;;;5094471;28;20522;-74
2021/08/23 10:16:17;;;;;;;4.60;3.05;;;21.20;99.90;;;;;;5093298;28;20488;-72
2021/08/23 10:18:43;;;;;;;6.13;3.72;;;20.90;99.90;;;;;;5094560;28;20024;-75
2021/08/23 10:21:09;;;;;;;5.18;3.35;;;20.70;99.90;;;;;;5094763;28;20020;-73
2021/08/23 10:23:38;;;;;;;5.63;2.97;;;20.50;99.90;;;;;;5093779;28;20027;-72
2021/08/23 10:26:04;;;;;;;5.38;3.80;;;20.40;99.90;;;;;;5093379;28;20016;-71
2021/08/23 10:28:39;;;;;;;4.97;3.22;;;20.30;99.90;;;;;;5094732;28;20491;-72
2021/08/23 10:31:09;;;;;;;3.85;2.72;;;20.20;99.90;;;;;;5092297;28;20130;-72
2021/08/23 10:33:36;;;;;;;4.65;3.15;;;20.30;99.90;;;;;;5093405;28;20065;-72
2021/08/23 10:36:03;;;;;;;5.53;3.10;;;20.50;99.90;;;;;;5093205;28;20039;-72
2021/08/23 10:38:28;;;;;;;10.75;3.13;;;20.70;99.90;;;;;;5093852;28;20086;-73
2021/08/23 10:41:10;;;;;;;7.00;3.20;;;20.90;99.90;;;;;;5092976;28;20031;-73
2021/08/23 10:44:04;;;;;;;5.35;2.78;;;21.00;99.90;;;;;;5094651;28;20024;-73
2021/08/23 10:46:35;;;;;;;5.65;3.03;;;21.10;99.90;;;;;;5092319;28;20477;-72
2021/08/23 10:49:15;;;;;;;6.90;3.08;;;21.40;99.90;;;;;;5092603;28;20388;-72
2021/08/23 10:51:43;;;;;;;5.60;2.83;;;21.80;99.90;;;;;;5093259;28;20536;-72
2021/08/23 10:54:26;;;;;;;2.88;2.30;;;22.10;99.90;;;;;;5094417;28;20385;-72
2021/08/23 10:57:00;;;;;;;2.50;2.30;;;22.40;99.90;;;;;;5092796;28;20027;-72
2021/08/23 10:59:36;;;;;;;7.82;2.75;;;22.40;99.90;;;;;;5093334;28;20065;-70
2021/08/23 11:02:02;;;;;;;4.65;2.50;;;22.10;99.90;;;;;;5092388;28;20032;-70
2021/08/23 11:04:33;;;;;;;4.82;2.67;;;21.90;99.90;;;;;;5092909;28;20111;-71
2021/08/23 11:07:00;;;;;;;2.63;2.05;;;21.80;99.90;;;;;;5092145;28;20024;-71
2021/08/23 11:09:38;;;;;;;4.15;2.80;;;21.60;99.90;;;;;;5094357;28;20066;-71
2021/08/23 11:12:23;;;;;;;3.40;2.50;;;21.50;99.90;;;;;;5093864;28;20046;-71
2021/08/23 11:14:50;;;;;;;6.93;3.20;;;21.50;99.90;;;;;;5093940;28;20465;-71
2021/08/23 11:17:27;;;;;;;2.83;2.08;;;21.50;99.90;;;;;;5092626;28;20388;-70
2021/08/23 11:19:53;;;;;;;2.88;2.22;;;21.50;99.90;;;;;;5092889;28;20104;-71
2021/08/23 11:22:19;;;;;;;3.63;2.30;;;21.40;99.90;;;;;;5093786;28;20111;-71
2021/08/23 11:24:44;;;;;;;4.03;2.60;;;21.40;99.90;;;;;;5093459;28;20055;-71
2021/08/23 11:27:10;;;;;;;5.45;3.40;;;21.60;99.90;;;;;;5091560;28;20051;-73
2021/08/23 11:29:38;;;;;;;4.78;2.55;;;21.80;99.90;;;;;;5093541;28;20095;-72
2021/08/23 11:32:08;;;;;;;4.00;2.45;;;22.10;99.90;;;;;;5093392;28;20377;-73
2021/08/23 11:34:35;;;;;;;5.90;3.50;;;22.60;99.90;;;;;;5092471;28;20020;-71
2021/08/23 11:37:11;;;;;;;3.80;2.30;;;22.80;99.90;;;;;;5091782;28;20051;-72
2021/08/23 11:39:36;;;;;;;9.10;3.50;;;23.00;99.90;;;;;;5092030;28;20077;-72
2021/08/23 11:42:05;;;;;;;3.92;2.67;;;23.20;99.90;;;;;;5092493;28;20043;-71
2021/08/23 11:44:32;;;;;;;3.65;2.00;;;23.40;99.90;;;;;;5092110;28;20471;-72
2021/08/23 11:47:00;;;;;;;3.67;2.33;;;23.30;99.90;;;;;;5091774;28;20089;-71
2021/08/23 11:49:31;;;;;;;2.58;2.13;;;22.80;99.90;;;;;;5091332;28;20539;-72
2021/08/23 11:51:58;;;;;;;5.93;2.58;;;22.50;99.90;;;;;;5091521;28;20027;-71
2021/08/23 11:54:24;;;;;;;3.08;1.98;;;22.50;99.90;;;;;;5093274;28;20424;-72
2021/08/23 11:56:49;;;;;;;2.47;2.17;;;22.70;99.90;;;;;;5092389;28;20099;-71
2021/08/23 11:59:15;;;;;;;3.53;2.00;;;23.10;99.90;;;;;;5093231;28;20102;-71
2021/08/23 12:01:41;;;;;;;4.55;2.28;;;23.30;99.90;;;;;;5090310;28;20040;-71
2021/08/23 12:04:06;;;;;;;4.90;2.55;;;23.40;99.90;;;;;;5093187;28;20038;-69
2021/08/23 12:06:33;;;;;;;2.55;1.98;;;23.30;99.90;;;;;;5092801;28;20027;-70
2021/08/23 12:09:00;;;;;;;3.08;2.08;;;23.10;99.90;;;;;;5092188;28;20050;-73
2021/08/23 12:11:26;;;;;;;2.63;2.08;;;22.80;99.90;;;;;;5091496;28;20069;-72
2021/08/23 12:13:52;;;;;;;2.95;2.15;;;22.50;99.90;;;;;;5092209;28;20513;-75
2021/08/23 12:16:18;;;;;;;2.38;1.92;;;22.20;99.90;;;;;;5091128;28;20027;-75
2021/08/23 12:18:51;;;;;;;3.97;2.15;;;22.30;99.90;;;;;;5091349;28;20023;-72
2021/08/23 12:21:31;;;;;;;3.90;2.42;;;22.70;99.90;;;;;;5092829;28;20024;-72
2021/08/23 12:24:21;;;;;;;3.38;2.60;;;23.00;99.90;;;;;;5090648;28;20388;-73
2021/08/23 12:26:56;;;;;;;5.15;2.38;;;22.90;99.90;;;;;;5084219;28;20169;-72
2021/08/23 12:29:23;;;;;;;3.13;2.40;;;22.80;99.90;;;;;;5091548;28;20024;-72
2021/08/23 12:31:58;;;;;;;3.83;2.33;;;22.90;99.90;;;;;;5090598;28;20063;-73
2021/08/23 12:34:47;;;;;;;4.55;2.20;;;23.20;99.90;;;;;;5091485;28;20039;-74
2021/08/23 12:37:14;;;;;;;3.83;2.17;;;23.50;99.90;;;;;;5091091;28;20021;-74